Utopia, Ohio
Current Conditions -  °F | °C
As of 6:15 AM on Thursday 18 Dec 2014 (Local Time) from KFGX Reporting Station
Overcast Overcast  
Wind Chill: 19°   Ceiling: 1600
Heat Index: 26°   Visibility: 10mi
Dew Point: 20°   Wind: 6mph
Humidity: 80%   Direction: 20°NNE
Pressure: 30.26"   Gusts: NA
Location:  38.8698°N, 83.9081°W
Report Text: KFGX 181115Z AUTO 02005KT 10SM OVC016 M03/M06 A3026 RMK AO2 T10351065
Loading
Personal Weather Stations






























Interactive Weather Map New forecast layout! Learn more

10-Day Weather Forecast

Advertisements
Track Severe Weather on mobile